Weather observations for the past three days for
Omaha, Millard Airport
Metric (Imperial)
Date Time (cdt) Wind (kph) Vis. (km) Weather Sky Cond. Temperature (ºC) Relative Humidity Wind Chill (°C) Heat Index (°C) Pressure Precipitation (cm)
Air Dwpt 6 hour altimeter (cm) sea level (mb) 1 hr 3 hr 6 hr
Max. Min.
05 15:55 NW 20 G 31 16.09 Partly Cloudy SCT070 14 -2.2 33% 75.97 0.0
05 15:35 NW 15 16.09 Partly Cloudy SCT070 14.2 -1.6 34% 75.97 0.0
05 15:15 N 11 G 26 16.09 Mostly Cloudy BKN070 14 -3.2 30% 76 0.0
05 14:35 NW 15 G 30 16.09 Partly Cloudy SCT070 14.4 -1.9 33% 76 0.0
05 14:15 N 15 G 28 16.09 Partly Cloudy SCT070 13.6 -2.5 33% 76.02 0.0
05 13:55 NW 9 16.09 Overcast OVC070 13.1 -1.4 37% 76.02 0.0
05 13:35 W 9 16.09 Overcast OVC070 12.9 -1.8 36% 76.02 0.0
05 13:15 W 9 16.09 Mostly Cloudy BKN070 BKN120 12.6 -1.2 39% 76.05 0.0
05 12:55 NW 6 16.09 Mostly Cloudy SCT070 BKN110 12.2 -1.4 12.5 9 39% 76.05 0.0
05 12:35 N 7 16.09 Partly Cloudy SCT110 12.3 -0.2 42% 76.05 0.0
05 12:15 NW 9 16.09 Partly Cloudy SCT110 11.7 -0.6 43% 76.07 0.0
05 11:55 NW 9 16.09 Partly Cloudy SCT120 11.2 0.2 47% 76.1 0.0
05 11:35 W 13 16.09 Mostly Cloudy BKN120 11.1 1.5 52% 76.07 0.0
05 11:15 NW 9 16.09 Overcast OVC120 10.3 1.9 56% 76.05 0.0
05 10:35 NW 13 16.09 Overcast OVC120 9.5 1.1 56% 8 76.05 0.0
05 10:15 NW 9 16.09 Overcast OVC120 9.5 0.6 54% 8 76.02 0.0
05 09:55 NW 11 16.09 Overcast OVC120 9.5 0.8 55% 8 76 0.0
05 09:35 NW 9 16.09 Mostly Cloudy BKN120 9.4 0.9 56% 8 76.02 0.0
05 09:15 NW 15 16.09 Overcast OVC120 9.5 0.7 55% 8 76.02 0.0
05 08:55 NW 9 16.09 Overcast OVC120 9.1 1.2 58% 8 76 0.0
05 08:35 NW 13 16.09 Overcast OVC120 9.2 1.3 58% 7 76 0.0
05 08:15 NW 7 16.09 Overcast OVC120 9.8 2 59% 9 75.95 0.0
05 07:55 W 9 16.09 Overcast OVC120 9.5 2.7 63% 8 75.92 0.0
05 07:35 NW 6 16.09 Partly Cloudy SCT120 9.6 2.1 60% 75.9 0.0
05 07:15 Calm 16.09 Fair CLR 9.6 1.3 57% 75.87 0.0
05 06:55 Calm 16.09 Fair CLR 9.3 1.5 10.3 8.2 59% 75.84 0.0 0.05
05 06:35 N 6 16.09 Fair CLR 9.3 1.7 59% 75.82 0.0
05 06:15 Calm 16.09 Fair CLR 9.3 1.8 60% 75.82 0.0
05 05:55 Calm 16.09 Fair CLR 8.9 3.6 70% 75.82 0.0
05 05:35 NW 6 16.09 Fair CLR 8.3 5.2 81% 75.84 0.0
05 05:15 NW 6 16.09 Fair CLR 8.7 5.6 81% 75.84 0.0
05 04:55 NW 6 16.09 Fair CLR 8.7 5.8 82% 75.84 0.0
05 04:35 Calm 16.09 Fair CLR 9.1 6.2 82% 75.82 0.0
05 04:15 NW 6 16.09 Fair CLR 8.6 6 84% 75.77 0.0
05 03:55 NW 9 16.09 Partly Cloudy SCT120 9.4 5.6 77% 8 75.77 0.0 0.05
05 03:35 Calm 16.09 Mostly Cloudy BKN110 9.2 6.2 82% 75.77 0.0
05 03:15 W 7 16.09 Overcast SCT080 OVC110 9.1 5.9 81% 8 75.74 0.0
05 02:55 Calm 16.09 Overcast OVC090 9.1 6.7 85% 75.72 0.0 0.03
05 02:35 Calm 16.09 Overcast OVC090 9.1 6 81% 75.72 0.0 0.03
05 02:15 Calm 16.09 Overcast OVC090 9 5.8 81% 75.72 0.0 0.03
05 01:55 Calm 16.09 Rain SCT075 OVC090 9.6 4 68% 75.72 0.0 0.03
05 01:35 Calm 16.09 Light Drizzle OVC090 9.8 3.8 67% 75.72 0.0
05 01:15 N 7 16.09 Light Rain BKN090 BKN120 10.1 3.3 63% 75.74 0.0
05 00:55 NE 6 16.09 Overcast OVC090 10.2 2.6 20.5 10.2 60% 75.69 0.0
05 00:35 N 9 16.09 Overcast OVC090 10.5 2.6 58% 75.74 0.0
05 00:15 N 6 16.09 Light Drizzle OVC090 10.4 2.7 59% 75.69 0.0
04 23:55 N 9 16.09 Rain OVC090 10.8 3.3 60% 75.74 0.0
04 23:35 N 7 16.09 Light Rain OVC080 11.3 2.3 54% 75.72 0.0
04 23:15 NW 13 16.09 Overcast SCT080 BKN090 OVC110 13 -0.2 41% 75.77 0.0
04 22:55 N 15 16.09 Mostly Cloudy BKN110 13.2 -0.6 39% 75.72 0.0
04 22:35 N 15 G 31 16.09 Mostly Cloudy BKN120 13.5 -0.6 38% 75.69 0.0
04 22:15 N 13 G 30 16.09 Mostly Cloudy BKN120 13.7 -0.6 38% 75.67 0.0
04 21:55 N 19 G 28 16.09 Partly Cloudy SCT120 13.8 -0.1 39% 75.64 0.0
04 21:35 N 19 G 30 16.09 Partly Cloudy SCT095 SCT110 14 -0.5 37% 75.62 0.0
04 21:15 N 24 G 35 16.09 Fair CLR 14.5 -0.1 37% 75.59 0.0
04 20:55 N 19 G 39 16.09 Partly Cloudy SCT110 14.9 0.5 38% 75.57 0.0
04 20:35 N 24 G 39 16.09 Partly Cloudy SCT110 15.9 0 34% 75.51 0.0
04 20:15 N 24 G 44 16.09 Fair CLR 16.5 0 33% 75.51 0.0
04 19:55 N 22 G 41 16.09 Fair CLR 17.8 -0.1 30% 75.46 0.0
04 19:35 N 17 G 39 16.09 Fair CLR 18.6 -0.1 28% 75.44 0.0
04 19:15 N 24 G 43 16.09 Fair CLR 20.2 0.4 27% 75.41 0.0
04 18:55 N 15 G 33 16.09 Fair CLR 20.5 0.8 26.7 20.5 27% 75.39 0.0
04 18:35 N 19 G 33 16.09 Fair CLR 21.5 0.8 25% 75.39 0.0
04 18:15 N 17 G 39 16.09 Fair CLR 21.6 0.6 25% 75.36 0.0
04 17:55 N 17 G 35 16.09 Fair CLR 22.6 0.9 24% 75.34 0.0
04 17:35 N 19 G 35 16.09 Fair CLR 23.2 1.3 24% 75.29 0.0
04 17:15 N 26 G 41 16.09 Fair CLR 24.1 2 24% 25 75.26 0.0
04 16:55 N 24 G 35 16.09 Fair CLR 24.5 2.2 23% 25 75.23 0.0
04 16:35 NE 17 G 28 16.09 Fair CLR 24.7 2.8 24% 25 75.21 0.0
04 16:15 N 15 G 31 16.09 Fair CLR 25 4.1 26% 25 75.21 0.0
04 15:55 N 11 16.09 Fair CLR 25.5 5.7 28% 26 75.21 0.0
04 15:35 NW 20 G 28 16.09 Fair CLR 25.3 5.3 28% 25 75.18 0.0
04 15:15 NW 20 G 33 16.09 Fair CLR 25.5 5.8 28% 26 75.21 0.0
04 14:55 N 24 G 31 16.09 Fair CLR 25.6 6.7 30% 26 75.18 0.0
04 14:35 NW 19 G 33 16.09 Fair CLR 25.5 6.2 29% 26 75.18 0.0
04 14:15 NW 20 G 30 16.09 Fair CLR 26 6 28% 26 75.16 0.0
04 13:55 NW 15 G 35 16.09 Fair CLR 26.1 4.8 25% 26 75.16 0.0
04 13:35 NW 28 G 39 16.09 Partly Cloudy SCT095 26.4 5.1 26% 26 75.13 0.0
04 13:15 W 24 G 37 16.09 Fair CLR 26.7 5.7 26% 26 75.13 0.0
04 12:55 NW 19 G 35 16.09 Fair CLR 26 5.3 26 8.6 27% 26 75.16 0.0
04 12:35 NW 30 G 39 16.09 Fair CLR 25.7 4.8 26% 26 75.16 0.0
04 12:15 NW 30 G 41 16.09 Fair CLR 25.2 5.3 28% 25 75.16 0.0
04 11:55 W 15 16.09 Fair CLR 24.6 5.9 30% 25 75.18 0.0
04 11:35 W 17 16.09 Fair CLR 24.2 6.7 33% 25 75.18 0.0
04 11:15 W 13 16.09 Fair CLR 23.2 7 35% 75.18 0.0
04 10:55 W 9 16.09 Fair CLR 22.7 6.8 36% 75.18 0.0
04 10:35 W 9 16.09 Fair CLR 21.6 6.9 39% 75.18 0.0
04 10:15 W 7 16.09 Fair CLR 20.5 6.8 41% 75.18 0.0
04 09:55 W 9 16.09 Fair CLR 19.4 5.8 41% 75.18 0.0
04 09:35 NW 11 16.09 Fair CLR 18.5 6.2 45% 75.21 0.0
04 09:15 NW 11 16.09 Fair CLR 17.3 6 48% 75.21 0.0
04 08:55 NW 11 16.09 Fair CLR 16.4 5.6 49% 75.23 0.0
04 08:35 NW 7 16.09 Fair CLR 15.1 6.9 58% 75.23 0.0
04 08:15 NW 11 16.09 Fair CLR 13.5 6.8 64% 75.23 0.0
04 07:55 NW 9 16.09 Fair CLR 12.4 7.2 71% 75.21 0.0
04 07:35 Calm 16.09 Fair CLR 10.4 7.4 82% 75.21 0.0
04 06:55 Calm 16.09 Fair CLR 8.5 6.1 11.4 8 85% 75.21 0.0
04 06:35 Calm 16.09 Fair CLR 8.9 6 82% 75.21 0.0
04 06:15 NW 7 16.09 Fair CLR 9.2 6.5 83% 8 75.23 0.0
04 05:55 NW 7 16.09 Fair CLR 8.7 6.2 84% 8 75.21 0.0
04 05:35 Calm 16.09 Fair CLR 8 5.3 83% 75.21 0.0
04 05:15 Calm 16.09 Fair CLR 8.5 5.8 83% 75.21 0.0
04 04:55 Calm 16.09 Fair CLR 8.7 5.4 80% 75.21 0.0
04 04:35 Calm 16.09 Fair CLR 8.9 6.3 84% 75.23 0.0
04 04:15 Calm 16.09 Fair CLR 8.6 6.3 86% 75.23 0.0
04 03:55 Calm 16.09 Fair CLR 9 6.6 85% 75.26 0.0
04 03:35 Calm 16.09 Fair CLR 9.1 6.1 82% 75.29 0.0
04 03:15 Calm 16.09 Fair CLR 9.4 6.3 81% 75.31 0.0
04 02:55 Calm 16.09 Fair CLR 9.5 6.6 82% 75.34 0.0
04 02:35 Calm 16.09 Fair CLR 9.7 7.4 86% 75.34 0.0
04 02:15 Calm 16.09 Fair CLR 10.2 6.4 78% 75.39 0.0
04 01:55 Calm 16.09 Fair CLR 10.1 6.2 77% 75.41 0.0
04 01:35 Calm 16.09 Fair CLR 10.6 6.1 74% 75.41 0.0
04 01:15 Calm 16.09 Fair CLR 11.3 6.6 73% 75.46 0.0
04 00:55 Calm 16.09 Fair CLR 11.5 7 23 11.5 74% 75.46 0.0
04 00:35 Calm 16.09 Fair CLR 11.8 6.4 70% 75.46 0.0
04 00:15 Calm 16.09 Fair CLR 12 6.8 71% 75.51 0.0
03 23:55 Calm 16.09 Fair CLR 12.5 6.4 67% 75.51 0.0
03 23:35 Calm 16.09 Fair CLR 12.6 7.3 70% 75.54 0.0
03 23:15 Calm 16.09 Fair CLR 13.4 6.5 63% 75.54 0.0
03 22:55 Calm 16.09 Fair CLR 14.3 7.1 62% 75.57 0.0
03 22:35 Calm 16.09 Fair CLR 14.8 5.8 55% 75.59 0.0
03 22:15 Calm 16.09 Fair CLR 15.4 6.7 56% 75.59 0.0
03 21:55 Calm 16.09 Fair CLR 15.5 5.6 52% 75.59 0.0
03 21:35 Calm 16.09 Fair CLR 16 5.5 50% 75.59 0.0
03 21:15 Calm 16.09 Fair CLR 16.6 5.4 48% 75.62 0.0
03 20:55 Calm 16.09 Fair CLR 17.5 4.9 44% 75.62 0.0
03 20:35 Calm 16.09 Fair CLR 18.6 4.7 40% 75.62 0.0
03 20:15 S 6 16.09 Fair CLR 21.5 2.9 29% 75.62 0.0
03 19:55 Calm 16.09 Fair CLR 21.7 3 29% 75.64 0.0
03 19:35 SW 7 16.09 Fair CLR 22 3.2 29% 75.64 0.0
03 19:15 W 11 16.09 Fair CLR 22.4 3 28% 75.64 0.0
03 18:55 Calm 16.09 Fair CLR 22.5 3 23.5 20.9 28% 75.67 0.0
03 18:35 Calm 16.09 Fair CLR 23.1 3.2 27% 75.67 0.0
03 18:15 W 7 16.09 Fair CLR 22.9 3.4 28% 75.67 0.0
03 17:55 W 9 16.09 Fair CLR 22.9 3.1 27% 75.69 0.0
03 17:35 NW 15 16.09 Fair CLR 22.9 3.9 29% 75.67 0.0
03 17:15 W 11 16.09 Fair CLR 23.3 3.5 28% 75.69 0.0
03 16:55 W 9 16.09 Fair CLR 23.1 3.5 28% 75.69 0.0
03 16:35 NW 13 16.09 Fair CLR 23.1 3.2 27% 75.72 0.0
03 16:15 W 13 16.09 Fair CLR 23.1 3.3 27% 75.74 0.0
03 15:55 E 6 16.09 Fair CLR 22.8 3.2 28% 75.77 0.0
03 15:35 NW 17 16.09 Fair CLR 22.7 3.5 29% 75.79 0.0
03 15:15 N 15 16.09 Fair CLR 22.6 2.2 26% 75.79 0.0
03 14:55 NE 9 16.09 Fair CLR 22 2.5 28% 75.82 0.0
03 14:35 N 15 16.09 Fair CLR 22.2 3.2 29% 75.82 0.0
03 14:15 N 13 16.09 Fair CLR 21.8 2.6 28% 75.84 0.0
03 13:55 NW 17 16.09 Fair CLR 22 2.8 28% 75.84 0.0
03 13:35 N 9 16.09 Fair CLR 21.7 2 27% 75.84 0.0
03 13:15 NW 11 G 28 16.09 Fair CLR 21.4 2.5 29% 75.87 0.0
03 12:55 N 15 16.09 Fair CLR 21 1.9 21.4 11.2 28% 75.9 0.0
03 12:35 N 13 16.09 Fair CLR 21.1 2.2 29% 75.9 0.0
03 12:15 N 13 16.09 Fair CLR 21.1 3.1 31% 75.92 0.0
03 11:55 NW 9 16.09 Fair CLR 20.4 4.5 35% 75.92 0.0
03 11:35 N 6 16.09 Fair CLR 19.4 4.7 38% 75.92 0.0
03 11:15 NW 9 16.09 Fair CLR 18.3 4.1 39% 75.95 0.0
03 10:55 NW 13 16.09 Fair CLR 18.2 4.6 41% 75.95 0.0
03 10:35 NW 13 16.09 Fair CLR 17.4 4.4 42% 75.95 0.0
03 10:15 NW 13 16.09 Fair CLR 17 4.1 43% 75.92 0.0
03 09:55 NW 9 16.09 Fair CLR 16.3 3.7 43% 75.9 0.0
03 09:35 NW 11 16.09 Fair CLR 15.7 3.5 44% 75.9 0.0
03 09:15 W 11 16.09 Fair CLR 15 3.2 45% 75.9 0.0
03 08:55 W 7 16.09 Fair CLR 14.5 2.9 46% 75.87 0.0
03 08:35 W 11 16.09 Fair CLR 14 2.6 46% 75.84 0.0
03 08:15 W 6 16.09 Fair CLR 13.7 2 45% 75.84 0.0
03 07:55 W 17 16.09 Fair CLR 13.4 1.8 46% 75.87 0.0
03 07:35 W 11 16.09 Partly Cloudy SCT085 SCT120 13.1 1.6 46% 75.84 0.0
03 07:15 SW 11 16.09 Partly Cloudy SCT120 12 1.5 49% 75.84 0.0
03 06:55 Calm 16.09 Fair CLR 11.2 1 14.5 9.8 50% 75.84 0.0
03 06:35 Calm 16.09 Fair CLR 11.1 0.7 49% 75.84 0.0
03 06:15 Calm 16.09 Fair CLR 11.7 0.3 46% 75.84 0.0
03 05:35 W 15 16.09 Fair CLR 12.8 0.1 42% 75.84 0.0
03 05:15 W 15 16.09 Fair CLR 13.5 0 40% 75.84 0.0
03 04:55 SW 13 G 26 16.09 Fair CLR 14.5 -0.1 37% 75.77 0.0
03 04:35 SW 13 G 26 16.09 Fair CLR 14.5 -0.1 37% 75.79 0.0
03 04:15 SW 7 16.09 Fair CLR 14.2 -0.1 38% 75.79 0.0
03 03:55 S 6 16.09 Fair CLR 13.6 -0.2 39% 75.82 0.0
03 03:35 S 13 16.09 Fair CLR 13.5 -0.4 39% 75.82 0.0
03 03:15 S 7 16.09 Fair CLR 13.1 -0.5 39% 75.84 0.0
03 02:55 S 9 16.09 Fair CLR 13 -0.6 39% 75.84 0.0
03 02:35 SW 7 16.09 Fair CLR 13.2 -0.5 39% 75.87 0.0
03 02:15 S 6 16.09 Fair CLR 13.4 -0.5 39% 75.87 0.0
03 01:55 S 9 16.09 Fair CLR 13.5 -0.6 38% 75.87 0.0
03 01:35 S 11 16.09 Fair CLR 13.6 -0.7 38% 75.9 0.0
03 01:15 S 11 16.09 Fair CLR 13.7 -0.8 37% 75.92 0.0
03 00:55 S 9 16.09 Fair CLR 14.1 -1 19.5 13.5 36% 75.95 0.0
03 00:35 S 11 16.09 Fair CLR 14.3 -1.3 34% 75.95 0.0
03 00:15 SW 9 16.09 Fair CLR 14.3 -1.1 35% 75.95 0.0
02 23:55 S 9 16.09 Fair CLR 14.1 -0.9 36% 75.97 0.0
02 23:35 S 9 16.09 Fair CLR 14 -0.7 37% 75.97 0.0
02 23:15 S 7 16.09 Fair CLR 13.6 -0.5 38% 76 0.0
02 22:55 S 9 16.09 Fair CLR 14 -0.7 37% 76.02 0.0
02 22:35 S 13 16.09 Fair CLR 14.6 -0.9 35% 76.02 0.0
02 22:15 S 15 16.09 Fair CLR 15 -1.2 33% 76.05 0.0
02 21:55 S 13 16.09 Fair CLR 15.1 -1 33% 76.07 0.0
02 21:35 S 9 16.09 Fair CLR 15.5 -1.1 32% 76.07 0.0
02 21:15 S 6 16.09 Fair CLR 15 -0.5 35% 76.1 0.0
02 20:55 S 6 16.09 Fair CLR 16.4 -1.4 30% 76.1 0.0
02 20:35 SE 6 16.09 Fair CLR 17.1 -1.8 28% 76.1 0.0
02 20:15 S 6 16.09 Fair CLR 18.4 -2.6 24% 76.1 0.0
02 19:55 Calm 16.09 Fair CLR 18.9 -2.6 23% 76.1 0.0
02 19:35 SW 9 16.09 Fair CLR 19.1 -2.5 23% 76.12 0.0
02 19:15 SW 7 16.09 Fair CLR 19.5 -2.3 23% 76.12 0.0
02 18:55 S 9 16.09 Fair CLR 19.6 -2.7 19.6 15.2 22% 76.15 0.0
02 18:35 SW 11 16.09 Fair CLR 19.6 -2.6 22% 76.17 0.0
02 18:15 SW 15 16.09 Fair CLR 19.6 -2.6 22% 76.2 0.0
02 17:55 SW 11 16.09 Fair CLR 19.5 -2 23% 76.2 0.0
02 17:35 W 9 G 15 16.09 Fair CLR 19.3 -2.3 23% 76.23 0.0
02 17:15 SW 9 16.09 Fair CLR 19.3 -1.3 25% 76.25 0.0
02 16:55 W 11 16.09 Fair CLR 18.9 -2.4 24% 76.28 0.0
02 16:35 SW 13 16.09 Fair CLR 18.5 -2 25% 76.28 0.0
Date Time (cdt) Wind (kph) Vis. (km) Weather Sky Cond. Air Dwpt Max. Min. Relative Humidity Wind Chill (°C) Heat Index (°C) altimeter (cm) sea level (mb) 1 hr 3 hr 6 hr
6 hour
Temperature (ºC) Pressure Precipitation (cm)